Flight Track Log - Related Links

Times and Time Zones

All times are in EDT time to prevent confusion due to time zone crossing. See the EGF3676 flight status page for this flight to view local times or setup timezone preferences in your user account.

Time Position Orientation Groundspeed Altitude Reporting Facility
EDT Latitude Longitude Course Direction KTS MPH feet Rate Location/Type
Sun 05:49:13 PM 39.8333 -104.7833 248° West 212 244 7,300  Level Denver TRACON
Sun 05:50:19 PM 39.8000 -104.8667 243° Southwest 264 304 10,100 2,231 Climbing Denver TRACON
Sun 05:51:00 PM 39.7319 -105.0376 247° West  Level FlightAware Approximate
Sun 05:51:14 PM 39.7772 -104.9567 252° West 283 326 11,800  Level Denver Center
Sun 05:52:00 PM 39.6910 -105.1604 247° West  Level FlightAware Approximate
Sun 05:52:16 PM 39.7403 -105.0664 246° West 327 376 13,400  Level Denver Center
Sun 05:53:00 PM 39.6538 -105.2849 252° West  Level FlightAware Approximate
Sun 05:53:18 PM 39.6997 -105.1872 246° West 367 422 14,600  Level Denver Center
Sun 05:54:00 PM 39.6164 -105.4095 248° West  Level FlightAware Approximate
Sun 05:54:20 PM 39.6533 -105.3231 246° West 382 440 16,500  Level Denver Center
Sun 05:55:22 PM 39.6092 -105.4508 246° West 391 450 18,300 1,839 Climbing Denver Center
Sun 05:56:24 PM 39.5628 -105.5847 246° West 372 428 20,300 1,258 Climbing Denver Center
Sun 05:57:26 PM 39.5217 -105.7203 249° West 402 463 20,900 1,065 Climbing Denver Center
Sun 05:58:28 PM 39.4847 -105.8597 251° West 407 468 22,500 1,548 Climbing Denver Center
Sun 05:59:30 PM 39.4478 -105.9969 251° West 401 461 24,100 1,403 Climbing Denver Center
Sun 06:00:32 PM 39.4083 -106.1350 250° West 405 466 25,400 1,306 Climbing Denver Center
Sun 06:01:34 PM 39.3658 -106.2878 250° West 399 459 26,800 1,113 Climbing Denver Center
Sun 06:02:36 PM 39.3297 -106.4167 250° West 399 459 27,700 1,016 Climbing Denver Center
Sun 06:03:38 PM 39.2856 -106.5683 249° West 403 464 28,900 919 Climbing Denver Center
Sun 06:04:40 PM 39.2469 -106.6975 249° West 402 463 29,600 823 Climbing Denver Center
Sun 06:05:42 PM 39.1692 -106.8347 234° Southwest 425 489 30,600 968 Climbing Denver Center
Sun 06:06:44 PM 39.0978 -106.9483 231° Southwest 427 491 31,600 1,016 Climbing Denver Center
Sun 06:07:46 PM 39.0156 -107.0775 231° Southwest 419 482 32,700 919 Climbing Denver Center
Sun 06:08:48 PM 38.9475 -107.1867 231° Southwest 411 473 33,500 629 Climbing Denver Center
Sun 06:09:50 PM 38.8681 -107.3114 231° Southwest 404 465 34,000 242 Climbing Denver Center
Sun 06:10:52 PM 38.7986 -107.4208 231° Southwest 409 471 34,000  Level Denver Center
Sun 06:11:54 PM 38.7283 -107.5294 230° Southwest 412 474 34,000  Level Denver Center
Sun 06:12:56 PM 38.6453 -107.6597 231° Southwest 418 481 34,000  Level Denver Center
Sun 06:13:58 PM 38.5736 -107.7703 230° Southwest 420 483 34,000  Level Denver Center
Sun 06:15:00 PM 38.4914 -107.8989 231° Southwest 418 481 34,000  Level Denver Center
Sun 06:16:02 PM 38.4197 -108.0072 230° Southwest 416 479 34,000  Level Denver Center
Sun 06:17:04 PM 38.3350 -108.1381 230° Southwest 424 488 34,000  Level Denver Center
Sun 06:18:06 PM 38.2619 -108.2483 230° Southwest 425 489 34,000  Level Denver Center
Sun 06:19:08 PM 38.1767 -108.3806 231° Southwest 428 493 34,000  Level Denver Center
Sun 06:20:10 PM 38.1033 -108.4892 229° Southwest 425 489 34,000  Level Denver Center
Sun 06:21:12 PM 38.0256 -108.6056 230° Southwest 424 488 34,000  Level Denver Center
Sun 06:22:14 PM 37.9386 -108.7361 230° Southwest 430 495 34,000  Level Denver Center
Sun 06:23:16 PM 37.8644 -108.8481 230° Southwest 434 499 34,000  Level Denver Center
Sun 06:24:18 PM 37.7942 -108.9622 232° Southwest 429 494 34,000  Level Denver Center
Sun 06:25:20 PM 37.7303 -109.1092 241° Southwest 428 493 34,000  Level Denver Center
Sun 06:26:22 PM 37.6750 -109.2306 240° Southwest 419 482 34,000  Level Denver Center
Sun 06:27:24 PM 37.6108 -109.3750 241° Southwest 422 486 34,000  Level Denver Center
Sun 06:28:26 PM 37.5556 -109.4989 241° Southwest 423 487 34,000  Level Denver Center
Sun 06:29:28 PM 37.4914 -109.6439 241° Southwest 425 489 34,000  Level Denver Center
Sun 06:30:30 PM 37.4347 -109.7678 240° Southwest 428 493 34,000  Level Denver Center
Sun 06:31:31 PM 37.3689 -109.9119 240° Southwest 428 493 34,000  Level Denver Center
Sun 06:32:33 PM 37.3128 -110.0369 241° Southwest 430 495 34,000  Level Denver Center
Sun 06:33:35 PM 37.2483 -110.1789 240° Southwest 430 495 34,000  Level Denver Center
Sun 06:34:37 PM 37.1936 -110.2958 240° Southwest 433 498 34,000  Level Denver Center
Sun 06:35:39 PM 37.1206 -110.4539 240° Southwest 437 503 34,000  Level Denver Center
Sun 06:36:41 PM 37.0589 -110.5847 239° Southwest 436 502 34,000  Level Denver Center
Sun 06:37:43 PM 36.9978 -110.7167 240° Southwest 438 504 34,000  Level Denver Center
Sun 06:38:45 PM 36.9381 -110.8475 240° Southwest 433 498 34,000  Level Denver Center
Sun 06:39:46 PM 36.8883 -110.9531 240° Southwest 437 503 34,000  Level Denver Center
Sun 06:40:49 PM 36.8153 -111.1094 240° Southwest 434 499 34,000  Level Denver Center
Sun 06:41:50 PM 36.7550 -111.2397 240° Southwest 433 498 34,000  Level Denver Center
Sun 06:42:52 PM 36.6775 -111.3997 239° Southwest 442 509 34,000  Level Denver Center
Sun 06:43:54 PM 36.6147 -111.5325 240° Southwest 445 512 34,000  Level Denver Center
Sun 06:44:56 PM 36.5506 -111.6647 239° Southwest 445 512 34,000  Level Denver Center
Sun 06:45:58 PM 36.4900 -111.7981 241° Southwest 444 511 34,000  Level Denver Center
Sun 06:47:00 PM 36.4347 -111.9333 243° Southwest 440 506 34,000  Level Denver Center
Sun 06:47:17 PM 36.4111 -111.9883 242° Southwest 442 509 34,000  Level Los Angeles Center
Sun 06:48:19 PM 36.3539 -112.1219 242° Southwest 439 505 34,000  Level Los Angeles Center
Sun 06:49:21 PM 36.2978 -112.2575 243° Southwest 440 506 34,000  Level Los Angeles Center
Sun 06:50:23 PM 36.2406 -112.3933 242° Southwest 444 511 34,000  Level Los Angeles Center
Sun 06:51:26 PM 36.1831 -112.5294 242° Southwest 444 511 34,000  Level Los Angeles Center
Sun 06:52:28 PM 36.1250 -112.6661 242° Southwest 448 516 34,000  Level Los Angeles Center
Sun 06:53:30 PM 36.0558 -112.8297 242° Southwest 448 516 34,000  Level Los Angeles Center
Sun 06:54:32 PM 35.9981 -112.9656 242° Southwest 446 513 34,000  Level Los Angeles Center
Sun 06:55:34 PM 35.9467 -113.0844 242° Southwest 447 514 34,000  Level Los Angeles Center
Sun 06:56:36 PM 35.8783 -113.2450 242° Southwest 445 512 34,000  Level Los Angeles Center
Sun 06:57:38 PM 35.8206 -113.3781 242° Southwest 445 512 34,000  Level Los Angeles Center
Sun 06:58:40 PM 35.7628 -113.5097 242° Southwest 442 509 34,000  Level Los Angeles Center
Sun 06:59:42 PM 35.6947 -113.6647 242° Southwest 443 510 34,000  Level Los Angeles Center
Sun 07:00:44 PM 35.6469 -113.7769 242° Southwest 447 514 34,000  Level Los Angeles Center
Sun 07:01:46 PM 35.5758 -113.9375 241° Southwest 449 517 34,000  Level Los Angeles Center
Sun 07:02:49 PM 35.5167 -114.0708 241° Southwest 449 517 34,000  Level Los Angeles Center
Sun 07:03:51 PM 35.4572 -114.2050 241° Southwest 451 519 34,000  Level Los Angeles Center
Sun 07:04:53 PM 35.3953 -114.3392 241° Southwest 446 513 34,000  Level Los Angeles Center
Sun 07:05:55 PM 35.3350 -114.4789 242° Southwest 459 528 34,000  Level Los Angeles Center
Sun 07:06:57 PM 35.2608 -114.6411 241° Southwest 455 524 34,000  Level Los Angeles Center
Sun 07:07:59 PM 35.2003 -114.7761 241° Southwest 453 521 34,000  Level Los Angeles Center
Sun 07:09:01 PM 35.1392 -114.9103 241° Southwest 451 519 34,000  Level Los Angeles Center
Sun 07:10:03 PM 35.0783 -115.0453 241° Southwest 452 520 34,000  Level Los Angeles Center
Sun 07:11:05 PM 35.0161 -115.1803 241° Southwest 454 522 34,000 -435 Level Los Angeles Center
Sun 07:12:07 PM 34.9556 -115.3117 241° Southwest 453 521 33,100 -1,065 Descending Los Angeles Center
Sun 07:13:09 PM 34.8797 -115.4725 240° Southwest 450 518 31,800 -1,152 Descending Los Angeles Center
Sun 07:14:12 PM 34.8175 -115.6117 241° Southwest 463 533 30,700 -864 Descending Los Angeles Center
Sun 07:15:14 PM 34.7533 -115.7511 241° Southwest 473 544 30,000 -339 Descending Los Angeles Center
Sun 07:16:16 PM 34.6894 -115.8867 240° Southwest 465 535 30,000  Level Los Angeles Center
Sun 07:17:18 PM 34.6264 -116.0206 240° Southwest 461 531 30,000  Level Los Angeles Center
Sun 07:18:20 PM 34.5625 -116.1558 240° Southwest 460 529 30,000  Level Los Angeles Center
Sun 07:19:22 PM 34.4992 -116.2914 240° Southwest 461 531 30,000 -774 Level Los Angeles Center
Sun 07:20:24 PM 34.4211 -116.4533 240° Southwest 461 531 28,400 -1,452 Descending Los Angeles Center
Sun 07:21:26 PM 34.3597 -116.5831 240° Southwest 448 516 27,000 -677 Descending Los Angeles Center
Sun 07:22:28 PM 34.2961 -116.7147 240° Southwest 451 519 27,000 -1,355 Level Los Angeles Center
Sun 07:23:30 PM 34.2322 -116.8472 240° Southwest 454 522 24,200 -2,710 Descending Los Angeles Center
Sun 07:24:32 PM 34.1694 -116.9769 240° Southwest 448 516 21,400 -2,323 Descending Los Angeles Center
Sun 07:25:34 PM 34.1006 -117.1261 241° Southwest 423 487 19,400 -960 Descending Los Angeles Center
Sun 07:26:37 PM 34.0569 -117.2258 242° Southwest 364 419 19,400 -1,152 Level Los Angeles Center
Sun 07:27:39 PM 34.0431 -117.3250 260° West 312 359 17,000 -2,371 Descending Los Angeles Center
Sun 07:28:41 PM 34.0306 -117.4236 261° West 299 344 14,500 -2,032 Descending Los Angeles Center
Sun 07:29:43 PM 34.0325 -117.5214 271° West 295 339 12,800 -1,645 Descending Los Angeles Center
Sun 07:30:45 PM 34.0278 -117.6386 267° West 291 335 11,100 -1,452 Descending Los Angeles Center
Sun 07:31:47 PM 34.0189 -117.7358 264° West 292 336 9,800 -1,328 Descending Los Angeles Center
Sun 07:32:47 PM 34.0000 -117.8333 257° West 289 333 8,400 -1,300 Descending Southern California TRACON
Sun 07:33:47 PM 34.0000 -117.9333 270° West 286 329 7,200 -1,250 Descending Southern California TRACON
Sun 07:34:47 PM 33.9833 -118.0167 256° West 280 322 5,900 -1,300 Descending Southern California TRACON
Sun 07:35:47 PM 33.9833 -118.1167 270° West 257 296 4,600 -1,300 Descending Southern California TRACON
Sun 07:36:47 PM 33.9667 -118.1833 253° West 218 251 3,300 -950 Descending Southern California TRACON
Sun 07:37:47 PM 33.9667 -118.2500 270° West 189 217 2,700 -694 Descending Southern California TRACON
Sun 07:38:48 PM 33.9667 -118.3167 270° West 175 201 1,900 -787 Descending Southern California TRACON

Login

Don't have an account? Register now (free) for customized features, flight alerts, and more!